createdAt,value
2019-01-26T00:00:04.804Z,-2.67
2019-01-26T00:01:05.015Z,-2.64
2019-01-26T00:02:04.994Z,-2.64
2019-01-26T00:03:04.980Z,-2.6
2019-01-26T00:04:04.957Z,-2.6
2019-01-26T00:05:04.956Z,-2.61
2019-01-26T00:06:04.658Z,-2.64
2019-01-26T00:07:04.902Z,-2.62
2019-01-26T00:08:04.873Z,-2.61
2019-01-26T00:09:04.844Z,-2.64
2019-01-26T00:10:04.662Z,-2.62
2019-01-26T00:11:04.966Z,-2.62
2019-01-26T00:12:04.788Z,-2.55
2019-01-26T00:13:04.808Z,-2.64
2019-01-26T00:14:04.740Z,-2.6
2019-01-26T00:15:04.725Z,-2.55
2019-01-26T00:16:04.701Z,-2.64
2019-01-26T00:17:04.682Z,-2.64
2019-01-26T00:18:04.659Z,-2.67
2019-01-26T00:19:04.642Z,-2.62
2019-01-26T00:20:04.621Z,-2.65
2019-01-26T00:21:17.332Z,-2.62
2019-01-26T00:22:04.580Z,-2.6
2019-01-26T00:23:04.559Z,-2.67
2019-01-26T00:24:04.541Z,-2.62
2019-01-26T00:25:04.282Z,-2.61
2019-01-26T00:26:04.523Z,-2.6
2019-01-26T00:27:04.224Z,-2.65
2019-01-26T00:28:04.203Z,-2.61
2019-01-26T00:29:04.437Z,-2.58
2019-01-26T00:30:04.410Z,-2.55
2019-01-26T00:31:04.142Z,-2.67
2019-01-26T00:32:04.367Z,-2.58
2019-01-26T00:33:04.358Z,-2.57
2019-01-26T00:34:04.089Z,-2.54
2019-01-26T00:35:04.310Z,-2.57
2019-01-26T00:36:04.286Z,-2.5
2019-01-26T00:37:04.264Z,-2.53
2019-01-26T00:38:03.993Z,-2.47
2019-01-26T00:39:04.221Z,-2.5
2019-01-26T00:40:03.958Z,-2.49
2019-01-26T00:41:04.184Z,-2.46
2019-01-26T00:42:04.158Z,-2.49
2019-01-26T00:43:04.139Z,-2.43
2019-01-26T00:44:04.113Z,-2.49
2019-01-26T00:45:04.112Z,-2.5
2019-01-26T00:46:04.076Z,-2.5
2019-01-26T00:47:03.812Z,-2.49
2019-01-26T00:48:04.031Z,-2.49
2019-01-26T00:49:04.008Z,-2.44
2019-01-26T00:50:03.989Z,-2.42
2019-01-26T00:51:03.967Z,-2.39
2019-01-26T00:52:03.948Z,-2.4
2019-01-26T00:53:03.928Z,-2.39
2019-01-26T00:54:03.906Z,-2.36
2019-01-26T00:55:03.889Z,-2.37
2019-01-26T00:56:03.867Z,-2.36
2019-01-26T00:57:03.856Z,-2.36
2019-01-26T00:58:03.577Z,-2.4
2019-01-26T00:59:03.772Z,-2.42
2019-01-26T01:00:03.783Z,-2.36
2019-01-26T01:01:03.761Z,-2.39
2019-01-26T01:02:03.741Z,-2.36
2019-01-26T01:03:03.729Z,-2.43
2019-01-26T01:04:03.455Z,-2.28
2019-01-26T01:05:03.678Z,-2.34
2019-01-26T01:06:03.656Z,-2.36
2019-01-26T01:07:03.637Z,-2.39
2019-01-26T01:08:03.610Z,-2.36
2019-01-26T01:09:03.346Z,-2.42
2019-01-26T01:10:03.574Z,-2.32
2019-01-26T01:11:03.556Z,-2.44
2019-01-26T01:12:03.528Z,-2.4
2019-01-26T01:13:03.508Z,-2.34
2019-01-26T01:14:03.488Z,-2.27
2019-01-26T01:15:03.466Z,-2.34
2019-01-26T01:16:03.447Z,-2.42
2019-01-26T01:17:03.429Z,-2.39
2019-01-26T01:18:03.161Z,-2.36
2019-01-26T01:19:03.309Z,-2.44
2019-01-26T01:20:03.368Z,-2.34
2019-01-26T01:21:04.340Z,-2.37
2019-01-26T01:22:03.075Z,-2.37
2019-01-26T01:23:03.052Z,-2.4
2019-01-26T01:24:03.286Z,-2.32
2019-01-26T01:25:03.072Z,-2.46
2019-01-26T01:26:03.269Z,-2.4
2019-01-26T01:27:03.228Z,-2.37
2019-01-26T01:28:03.225Z,-2.37
2019-01-26T01:29:03.180Z,-2.37
2019-01-26T01:30:03.158Z,-2.34
2019-01-26T01:31:03.133Z,-2.42
2019-01-26T01:32:03.114Z,-2.42
2019-01-26T01:33:02.846Z,-2.4
2019-01-26T01:34:03.076Z,-2.34
2019-01-26T01:35:03.049Z,-2.36
2019-01-26T01:36:03.025Z,-2.34
2019-01-26T01:37:03.010Z,-2.36
2019-01-26T01:38:02.990Z,-2.36
2019-01-26T01:39:02.475Z,-2.36
2019-01-26T01:40:02.942Z,-2.37
2019-01-26T01:41:02.923Z,-2.39
2019-01-26T01:42:02.908Z,-2.32
2019-01-26T01:43:02.883Z,-2.32
2019-01-26T01:44:02.864Z,-2.27
2019-01-26T01:45:02.595Z,-2.4
2019-01-26T01:46:02.820Z,-2.43
2019-01-26T01:47:02.795Z,-2.37
2019-01-26T01:48:02.530Z,-2.4
2019-01-26T01:49:02.762Z,-2.39
2019-01-26T01:50:02.738Z,-2.46
2019-01-26T01:51:02.715Z,-2.44
2019-01-26T01:52:02.695Z,-2.43
2019-01-26T01:53:02.675Z,-2.37
2019-01-26T01:54:02.656Z,-2.44
2019-01-26T01:55:02.386Z,-2.4
2019-01-26T01:56:02.613Z,-2.25
2019-01-26T01:57:02.593Z,-2.32
2019-01-26T01:58:02.569Z,-2.28
2019-01-26T01:59:02.657Z,-2.3
2019-01-26T02:00:02.548Z,-2.3
2019-01-26T02:01:02.513Z,-2.28
2019-01-26T02:02:02.482Z,-2.2
2019-01-26T02:03:02.467Z,-2.24
2019-01-26T02:04:02.447Z,-2.24
2019-01-26T02:05:02.465Z,-2.24
2019-01-26T02:06:02.405Z,-2.24
2019-01-26T02:07:02.382Z,-2.25
2019-01-26T02:08:02.114Z,-2.21
2019-01-26T02:09:02.338Z,-2.18
2019-01-26T02:10:02.321Z,-2.24
2019-01-26T02:11:02.297Z,-2.25
2019-01-26T02:12:02.034Z,-2.28
2019-01-26T02:13:02.256Z,-2.28
2019-01-26T02:14:02.236Z,-2.24
2019-01-26T02:15:02.216Z,-2.23
2019-01-26T02:16:01.950Z,-2.25
2019-01-26T02:17:01.924Z,-2.23
2019-01-26T02:18:02.157Z,-2.25
2019-01-26T02:19:02.138Z,-2.24
2019-01-26T02:20:02.117Z,-2.23
2019-01-26T02:21:02.089Z,-2.32
2019-01-26T02:22:02.069Z,-2.23
2019-01-26T02:23:02.055Z,-2.27
2019-01-26T02:24:02.026Z,-2.24
2019-01-26T02:25:02.008Z,-2.32
2019-01-26T02:26:02.211Z,-2.28
2019-01-26T02:27:01.966Z,-2.28
2019-01-26T02:28:01.950Z,-2.23
2019-01-26T02:29:01.677Z,-2.25
2019-01-26T02:30:01.923Z,-2.36
2019-01-26T02:31:01.912Z,-2.25
2019-01-26T02:32:01.871Z,-2.32
2019-01-26T02:33:01.843Z,-2.34
2019-01-26T02:34:01.819Z,-2.36
2019-01-26T02:35:01.797Z,-2.24
2019-01-26T02:36:01.529Z,-2.36
2019-01-26T02:37:01.765Z,-2.3
2019-01-26T02:38:01.752Z,-2.37
2019-01-26T02:39:01.730Z,-2.42
2019-01-26T02:40:01.703Z,-2.4
2019-01-26T02:41:01.677Z,-2.4
2019-01-26T02:42:01.657Z,-2.39
2019-01-26T02:43:01.643Z,-2.4
2019-01-26T02:44:01.616Z,-2.37
2019-01-26T02:45:01.599Z,-2.39
2019-01-26T02:46:01.574Z,-2.34
2019-01-26T02:47:03.019Z,-2.4
2019-01-26T02:48:01.533Z,-2.46
2019-01-26T02:49:01.521Z,-2.39
2019-01-26T02:50:01.261Z,-2.4
2019-01-26T02:51:01.466Z,-2.37
2019-01-26T02:52:01.446Z,-2.42
2019-01-26T02:53:01.528Z,-2.42
2019-01-26T02:54:01.410Z,-2.46
2019-01-26T02:55:01.389Z,-2.46
2019-01-26T02:56:01.365Z,-2.39
2019-01-26T02:57:01.351Z,-2.23
2019-01-26T02:58:01.318Z,-2.4
2019-01-26T02:59:01.056Z,-2.43
2019-01-26T03:00:01.291Z,-2.34
2019-01-26T03:01:01.014Z,-2.42
2019-01-26T03:02:01.245Z,-2.42
2019-01-26T03:03:01.221Z,-2.42
2019-01-26T03:04:01.197Z,-2.3
2019-01-26T03:05:01.174Z,-2.39
2019-01-26T03:06:01.164Z,-2.39
2019-01-26T03:07:01.147Z,-2.27
2019-01-26T03:08:01.113Z,-2.39
2019-01-26T03:09:01.095Z,-2.37
2019-01-26T03:10:01.070Z,-2.43
2019-01-26T03:11:01.052Z,-2.44
2019-01-26T03:12:01.035Z,-2.42
2019-01-26T03:13:01.011Z,-2.43
2019-01-26T03:14:00.987Z,-2.42
2019-01-26T03:15:00.970Z,-2.3
2019-01-26T03:16:01.037Z,-2.42
2019-01-26T03:17:08.247Z,-2.46
2019-01-26T03:18:00.662Z,-2.43
2019-01-26T03:19:00.892Z,-2.44
2019-01-26T03:20:00.864Z,-2.43
2019-01-26T03:21:00.598Z,-2.4
2019-01-26T03:22:00.824Z,-2.36
2019-01-26T03:23:00.807Z,-2.36
2019-01-26T03:24:00.786Z,-2.34
2019-01-26T03:25:00.761Z,-2.3
2019-01-26T03:26:00.490Z,-2.32
2019-01-26T03:27:00.717Z,-2.4
2019-01-26T03:28:00.715Z,-2.34
2019-01-26T03:29:00.676Z,-2.37
2019-01-26T03:30:00.408Z,-2.37
2019-01-26T03:31:00.663Z,-2.36
2019-01-26T03:32:00.394Z,-2.4
2019-01-26T03:33:00.617Z,-2.39
2019-01-26T03:34:00.337Z,-2.36
2019-01-26T03:35:00.559Z,-2.34
2019-01-26T03:36:00.281Z,-2.36
2019-01-26T03:37:00.541Z,-2.4
2019-01-26T03:38:00.497Z,-2.36
2019-01-26T03:39:00.475Z,-2.36
2019-01-26T03:40:00.448Z,-2.39
2019-01-26T03:41:00.202Z,-2.4
2019-01-26T03:42:00.166Z,-2.43
2019-01-26T03:43:00.392Z,-2.34
2019-01-26T03:44:00.369Z,-2.43
2019-01-26T03:45:00.361Z,-2.36
2019-01-26T03:46:00.339Z,-2.36
2019-01-26T03:47:00.309Z,-2.37
2019-01-26T03:48:00.287Z,-2.44
2019-01-26T03:49:00.278Z,-2.37
2019-01-26T03:50:00.256Z,-2.42
2019-01-26T03:51:00.223Z,-2.53
2019-01-26T03:52:00.213Z,-2.36
2019-01-26T03:52:59.930Z,-2.39
2019-01-26T03:54:00.164Z,-2.43
2019-01-26T03:55:00.210Z,-2.4
2019-01-26T03:56:00.115Z,-2.5
2019-01-26T03:57:00.122Z,-2.4
2019-01-26T03:58:00.087Z,-2.47
2019-01-26T03:59:00.062Z,-2.5
2019-01-26T04:00:00.041Z,-2.47
2019-01-26T04:01:00.022Z,-2.39
2019-01-26T04:01:59.995Z,-2.37
2019-01-26T04:02:59.977Z,-2.42
2019-01-26T04:03:59.951Z,-2.49
2019-01-26T04:04:59.931Z,-2.43
2019-01-26T04:05:59.912Z,-2.34
2019-01-26T04:06:59.886Z,-2.39
2019-01-26T04:07:59.866Z,-2.42
2019-01-26T04:08:59.846Z,-2.3
2019-01-26T04:09:59.821Z,-2.4
2019-01-26T04:10:59.555Z,-2.37
2019-01-26T04:11:59.782Z,-2.36
2019-01-26T04:12:59.760Z,-2.3
2019-01-26T04:13:59.752Z,-2.3
2019-01-26T04:14:59.723Z,-2.3
2019-01-26T04:15:59.708Z,-2.43
2019-01-26T04:16:59.444Z,-2.39
2019-01-26T04:17:59.655Z,-2.34
2019-01-26T04:18:59.642Z,-2.4
2019-01-26T04:19:59.622Z,-2.4
2019-01-26T04:20:59.599Z,-2.46
2019-01-26T04:21:59.338Z,-2.37
2019-01-26T04:22:59.317Z,-2.4
2019-01-26T04:23:59.534Z,-2.37
2019-01-26T04:24:59.522Z,-2.43
2019-01-26T04:25:59.496Z,-2.32
2019-01-26T04:26:59.471Z,-2.39
2019-01-26T04:27:59.458Z,-2.4
2019-01-26T04:28:59.447Z,-2.32
2019-01-26T04:29:59.415Z,-2.39
2019-01-26T04:30:59.146Z,-2.34
2019-01-26T04:31:59.398Z,-2.34
2019-01-26T04:32:59.351Z,-2.39
2019-01-26T04:33:59.329Z,-2.32
2019-01-26T04:34:59.312Z,-2.28
2019-01-26T04:35:59.283Z,-2.23
2019-01-26T04:36:59.274Z,-2.27
2019-01-26T04:37:58.996Z,-2.25
2019-01-26T04:38:59.232Z,-2.32
2019-01-26T04:39:58.961Z,-2.24
2019-01-26T04:40:58.941Z,-2.24
2019-01-26T04:41:59.179Z,-2.2
2019-01-26T04:42:59.170Z,-2.24
2019-01-26T04:43:59.115Z,-2.21
2019-01-26T04:44:59.116Z,-2.23
2019-01-26T04:45:58.834Z,-2.18
2019-01-26T04:46:59.079Z,-2.23
2019-01-26T04:47:58.826Z,-2.23
2019-01-26T04:48:59.022Z,-2.14
2019-01-26T04:49:58.997Z,-2.2
2019-01-26T04:50:58.979Z,-2.14
2019-01-26T04:51:58.961Z,-2.18
2019-01-26T04:52:58.935Z,-2.18
2019-01-26T04:53:58.957Z,-2.15
2019-01-26T04:54:58.891Z,-2.21
2019-01-26T04:55:58.878Z,-2.17
2019-01-26T04:56:58.853Z,-2.2
2019-01-26T04:57:58.832Z,-2.15
2019-01-26T04:58:58.571Z,-2.18
2019-01-26T04:59:58.796Z,-2.1
2019-01-26T05:00:58.805Z,-2.07
2019-01-26T05:01:58.754Z,-2.03
2019-01-26T05:02:58.483Z,-2.05
2019-01-26T05:03:58.710Z,-2.07
2019-01-26T05:04:58.683Z,-2
2019-01-26T05:05:58.415Z,-2.1
2019-01-26T05:06:58.650Z,-2.03
2019-01-26T05:07:58.381Z,-1.99
2019-01-26T05:08:58.355Z,-2.09
2019-01-26T05:09:58.585Z,-2
2019-01-26T05:10:58.663Z,-2.03
2019-01-26T05:11:58.549Z,-2.07
2019-01-26T05:12:58.525Z,-1.94
2019-01-26T05:13:58.503Z,-2.05
2019-01-26T05:14:58.480Z,-2.02
2019-01-26T05:15:58.459Z,-1.99
2019-01-26T05:16:58.445Z,-2.02
2019-01-26T05:17:58.173Z,-1.97
2019-01-26T05:18:58.401Z,-2.02
2019-01-26T05:19:58.384Z,-1.97
2019-01-26T05:20:58.111Z,-1.97
2019-01-26T05:21:58.336Z,-1.96
2019-01-26T05:22:58.077Z,-1.96
2019-01-26T05:23:58.299Z,-2.02
2019-01-26T05:24:58.279Z,-1.97
2019-01-26T05:25:58.011Z,-1.89
2019-01-26T05:26:58.238Z,-1.85
2019-01-26T05:27:58.214Z,-1.84
2019-01-26T05:28:58.195Z,-2.02
2019-01-26T05:29:58.171Z,-1.89
2019-01-26T05:30:57.902Z,-1.96
2019-01-26T05:31:58.140Z,-1.92
2019-01-26T05:32:58.112Z,-1.86
2019-01-26T05:33:57.842Z,-1.84
2019-01-26T05:34:58.071Z,-1.81
2019-01-26T05:35:58.060Z,-1.89
2019-01-26T05:36:58.034Z,-1.84
2019-01-26T05:37:58.018Z,-1.81
2019-01-26T05:38:57.750Z,-1.84
2019-01-26T05:39:57.970Z,-1.85
2019-01-26T05:40:57.953Z,-1.82
2019-01-26T05:41:57.930Z,-1.85
2019-01-26T05:42:57.914Z,-1.79
2019-01-26T05:43:57.886Z,-1.79
2019-01-26T05:44:57.871Z,-1.82
2019-01-26T05:45:57.848Z,-1.86
2019-01-26T05:46:57.576Z,-1.85
2019-01-26T05:47:57.599Z,-1.82
2019-01-26T05:48:57.785Z,-1.82
2019-01-26T05:49:57.782Z,-1.74
2019-01-26T05:50:57.745Z,-1.68
2019-01-26T05:51:57.722Z,-1.85
2019-01-26T05:52:57.703Z,-1.78
2019-01-26T05:53:57.435Z,-1.78
2019-01-26T05:54:57.661Z,-1.71
2019-01-26T05:55:57.645Z,-1.84
2019-01-26T05:56:57.628Z,-1.66
2019-01-26T05:57:57.608Z,-1.85
2019-01-26T05:58:57.913Z,-1.74
2019-01-26T05:59:57.567Z,-1.73
2019-01-26T06:00:57.291Z,-1.73
2019-01-26T06:01:57.532Z,-1.71
2019-01-26T06:02:57.506Z,-1.64
2019-01-26T06:03:57.481Z,-1.67
2019-01-26T06:04:57.464Z,-1.64
2019-01-26T06:05:57.443Z,-1.71
2019-01-26T06:06:57.422Z,-1.74
2019-01-26T06:07:57.401Z,-1.71
2019-01-26T06:08:57.383Z,-1.7
2019-01-26T06:09:57.358Z,-1.71
2019-01-26T06:10:57.335Z,-1.66
2019-01-26T06:11:57.321Z,-1.67
2019-01-26T06:12:58.799Z,-1.67
2019-01-26T06:13:57.283Z,-1.61
2019-01-26T06:14:57.015Z,-1.6
2019-01-26T06:15:57.238Z,-1.63
2019-01-26T06:16:57.217Z,-1.6
2019-01-26T06:18:00.107Z,-1.55
2019-01-26T06:18:57.176Z,-1.63
2019-01-26T06:19:57.155Z,-1.56
2019-01-26T06:20:57.136Z,-1.63
2019-01-26T06:21:57.116Z,-1.6
2019-01-26T06:22:57.102Z,-1.6
2019-01-26T06:23:56.825Z,-1.61
2019-01-26T06:24:56.810Z,-1.55
2019-01-26T06:25:57.038Z,-1.56
2019-01-26T06:26:57.012Z,-1.53
2019-01-26T06:27:56.749Z,-1.58
2019-01-26T06:28:56.972Z,-1.55
2019-01-26T06:29:56.460Z,-1.55
2019-01-26T06:30:56.935Z,-1.46
2019-01-26T06:31:56.913Z,-1.45
2019-01-26T06:32:56.892Z,-1.43
2019-01-26T06:33:56.627Z,-1.48
2019-01-26T06:34:56.855Z,-1.56
2019-01-26T06:35:56.336Z,-1.48
2019-01-26T06:36:56.969Z,-1.53
2019-01-26T06:37:56.795Z,-1.55
2019-01-26T06:38:58.062Z,-1.5
2019-01-26T06:39:56.751Z,-1.5
2019-01-26T06:40:56.484Z,-1.53
2019-01-26T06:41:56.710Z,-1.55
2019-01-26T06:42:56.691Z,-1.5
2019-01-26T06:43:56.713Z,-1.43
2019-01-26T06:44:56.669Z,-1.48
2019-01-26T06:45:56.629Z,-1.52
2019-01-26T06:46:56.607Z,-1.5
2019-01-26T06:48:02.010Z,-1.5
2019-01-26T06:48:56.322Z,-1.53
2019-01-26T06:49:56.304Z,-1.49
2019-01-26T06:50:56.532Z,-1.4
2019-01-26T06:51:56.267Z,-1.53
2019-01-26T06:52:56.497Z,-1.37
2019-01-26T06:53:56.222Z,-1.43
2019-01-26T06:57:00.898Z,-1.56
2019-01-26T06:58:01.125Z,-1.52
2019-01-26T06:59:01.110Z,-1.49
2019-01-26T07:00:01.086Z,-1.46
2019-01-26T07:01:01.115Z,-1.45
2019-01-26T07:02:01.091Z,-1.43
2019-01-26T07:03:00.580Z,-1.49
2019-01-26T07:04:01.053Z,-1.46
2019-01-26T07:05:01.039Z,-1.38
2019-01-26T07:06:01.016Z,-1.42
2019-01-26T07:07:00.745Z,-1.38
2019-01-26T07:08:00.975Z,-1.34
2019-01-26T07:09:00.703Z,-1.37
2019-01-26T07:10:00.937Z,-1.38
2019-01-26T07:11:02.162Z,-1.38
2019-01-26T07:12:00.902Z,-1.37
2019-01-26T07:13:00.883Z,-1.35
2019-01-26T07:14:00.607Z,-1.37
2019-01-26T07:15:00.836Z,-1.35
2019-01-26T07:16:00.813Z,-1.35
2019-01-26T07:17:00.801Z,-1.37
2019-01-26T07:18:00.529Z,-1.38
2019-01-26T07:19:00.756Z,-1.28
2019-01-26T07:20:00.746Z,-1.32
2019-01-26T07:21:00.467Z,-1.32
2019-01-26T07:22:00.701Z,-1.37
2019-01-26T07:23:00.429Z,-1.27
2019-01-26T07:24:00.652Z,-1.3
2019-01-26T07:25:00.636Z,-1.28
2019-01-26T07:26:00.615Z,-1.34
2019-01-26T07:27:00.601Z,-1.28
2019-01-26T07:28:00.579Z,-1.25
2019-01-26T07:29:00.552Z,-1.27
2019-01-26T07:30:00.576Z,-1.19
2019-01-26T07:31:00.518Z,-1.22
2019-01-26T07:32:00.256Z,-1.19
2019-01-26T07:33:00.482Z,-1.19
2019-01-26T07:34:00.207Z,-1.28
2019-01-26T07:35:00.193Z,-1.22
2019-01-26T07:36:00.418Z,-1.16
2019-01-26T07:37:00.393Z,-1.16
2019-01-26T07:38:00.381Z,-1.14
2019-01-26T07:39:00.359Z,-1.04
2019-01-26T07:40:00.337Z,-1.04
2019-01-26T07:41:00.066Z,-1.06
2019-01-26T07:42:00.292Z,-1.14
2019-01-26T07:43:00.279Z,-1.06
2019-01-26T07:44:00.262Z,-1.01
2019-01-26T07:45:00.235Z,-1.03
2019-01-26T07:45:59.969Z,-1.1
2019-01-26T07:47:00.201Z,-1.07
2019-01-26T07:48:00.178Z,-1.07
2019-01-26T07:49:00.164Z,-0.96
2019-01-26T07:50:00.252Z,-0.99
2019-01-26T07:51:00.122Z,-0.96
2019-01-26T07:52:00.099Z,-0.99
2019-01-26T07:53:00.082Z,-0.96
2019-01-26T07:53:59.813Z,-0.95
2019-01-26T07:55:00.035Z,-0.99
2019-01-26T07:56:00.023Z,-0.95
2019-01-26T07:57:00.010Z,-0.89
2019-01-26T07:57:59.980Z,-0.89
2019-01-26T07:58:59.961Z,-0.92
2019-01-26T07:59:59.692Z,-0.92
2019-01-26T08:00:59.924Z,-0.85
2019-01-26T08:01:59.902Z,-0.89
2019-01-26T08:02:59.887Z,-0.79
2019-01-26T08:03:59.870Z,-0.8
2019-01-26T08:04:59.842Z,-0.85
2019-01-26T08:05:59.826Z,-0.79
2019-01-26T08:06:59.551Z,-0.74
2019-01-26T08:07:59.782Z,-0.82
2019-01-26T08:08:59.761Z,-0.74
2019-01-26T08:09:59.494Z,-0.72
2019-01-26T08:10:59.722Z,-0.69
2019-01-26T08:11:59.706Z,-0.67
2019-01-26T08:12:59.683Z,-0.67
2019-01-26T08:13:59.663Z,-0.7
2019-01-26T08:14:59.400Z,-0.67
2019-01-26T08:15:59.625Z,-0.73
2019-01-26T08:16:59.395Z,-0.59
2019-01-26T08:17:59.586Z,-0.62
2019-01-26T08:18:59.076Z,-0.72
2019-01-26T08:19:59.547Z,-0.52
2019-01-26T08:20:59.529Z,-0.69
2019-01-26T08:21:59.507Z,-0.55
2019-01-26T08:22:59.488Z,-0.48
2019-01-26T08:23:59.470Z,-0.55
2019-01-26T08:24:58.953Z,-0.54
2019-01-26T08:25:59.431Z,-0.41
2019-01-26T08:26:59.163Z,-0.43
2019-01-26T08:27:59.389Z,-0.51
2019-01-26T08:28:59.372Z,-0.45
2019-01-26T08:29:59.107Z,-0.38
2019-01-26T08:30:59.332Z,-0.38
2019-01-26T08:31:59.065Z,-0.34
2019-01-26T08:32:59.344Z,-0.38
2019-01-26T08:33:59.271Z,-0.33
2019-01-26T08:34:59.254Z,-0.33
2019-01-26T08:35:59.246Z,-0.3
2019-01-26T08:36:59.217Z,-0.36
2019-01-26T08:37:59.197Z,-0.3
2019-01-26T08:38:59.180Z,-0.33
2019-01-26T08:39:58.915Z,-0.23
2019-01-26T08:40:58.888Z,-0.19
2019-01-26T08:41:59.126Z,-0.31
2019-01-26T08:42:59.099Z,-0.22
2019-01-26T08:43:58.833Z,-0.19
2019-01-26T08:44:59.064Z,-0.19
2019-01-26T08:45:58.792Z,-0.15
2019-01-26T08:46:59.021Z,-0.09
2019-01-26T08:47:59.006Z,-0.09
2019-01-26T08:48:59.052Z,0.01
2019-01-26T08:49:58.967Z,0.01
2019-01-26T08:50:58.942Z,0.05
2019-01-26T08:51:58.926Z,0.01
2019-01-26T08:52:58.911Z,0.09
2019-01-26T08:53:58.642Z,0.09
2019-01-26T08:54:58.866Z,0.03
2019-01-26T08:55:58.845Z,0.1
2019-01-26T08:56:58.836Z,0.1
2019-01-26T08:57:58.813Z,0.1
2019-01-26T08:58:58.792Z,0.14
2019-01-26T08:59:58.775Z,0.16
2019-01-26T09:00:58.758Z,0.13
2019-01-26T09:01:59.167Z,0.14
2019-01-26T09:02:58.468Z,0.21
2019-01-26T09:03:58.698Z,0.13
2019-01-26T09:04:58.678Z,0.19
2019-01-26T09:05:58.665Z,0.17
2019-01-26T09:06:58.639Z,0.2
2019-01-26T09:07:58.376Z,0.14
2019-01-26T09:08:58.600Z,0.17
2019-01-26T09:09:58.581Z,0.27
2019-01-26T09:10:58.566Z,0.28
2019-01-26T09:11:58.548Z,0.28
2019-01-26T09:12:58.527Z,0.35
2019-01-26T09:13:58.513Z,0.26
2019-01-26T09:14:58.494Z,0.26
2019-01-26T09:15:58.473Z,0.26
2019-01-26T09:16:58.458Z,0.31
2019-01-26T09:17:58.434Z,0.42
2019-01-26T09:18:58.415Z,0.41
2019-01-26T09:19:58.399Z,0.39
2019-01-26T09:20:58.378Z,0.39
2019-01-26T09:21:58.361Z,0.38
2019-01-26T09:22:58.347Z,0.37
2019-01-26T09:23:58.371Z,0.42
2019-01-26T09:24:58.314Z,0.41
2019-01-26T09:25:58.283Z,0.48
2019-01-26T09:26:58.264Z,0.42
2019-01-26T09:27:58.243Z,0.44
2019-01-26T09:28:57.977Z,0.45
2019-01-26T09:29:58.209Z,0.38
2019-01-26T09:30:58.192Z,0.39
2019-01-26T09:31:58.173Z,0.45
2019-01-26T09:32:58.150Z,0.44
2019-01-26T09:33:57.886Z,0.48
2019-01-26T09:34:58.151Z,0.37
2019-01-26T09:35:58.097Z,0.48
2019-01-26T09:36:58.098Z,0.48
2019-01-26T09:37:57.813Z,0.52
2019-01-26T09:38:58.044Z,0.5
2019-01-26T09:39:58.024Z,0.53
2019-01-26T09:40:58.005Z,0.5
2019-01-26T09:41:57.738Z,0.52
2019-01-26T09:42:57.966Z,0.61
2019-01-26T09:43:57.698Z,0.69
2019-01-26T09:44:57.926Z,0.78
2019-01-26T09:45:57.915Z,0.75
2019-01-26T09:46:57.896Z,0.69
2019-01-26T09:47:57.875Z,0.72
2019-01-26T09:48:57.869Z,0.71
2019-01-26T09:49:57.842Z,0.69
2019-01-26T09:50:57.821Z,0.74
2019-01-26T09:51:57.550Z,0.71
2019-01-26T09:52:57.791Z,0.85
2019-01-26T09:53:57.763Z,0.72
2019-01-26T09:54:57.746Z,0.82
2019-01-26T09:55:57.729Z,0.78
2019-01-26T09:56:57.704Z,0.76
2019-01-26T09:57:57.440Z,0.78
2019-01-26T09:58:57.674Z,0.76
2019-01-26T09:59:57.650Z,0.75
2019-01-26T10:00:57.643Z,0.86
2019-01-26T10:01:57.621Z,0.84
2019-01-26T10:02:57.351Z,0.93
2019-01-26T10:03:57.629Z,0.93
2019-01-26T10:04:57.561Z,0.89
2019-01-26T10:05:57.543Z,0.93
2019-01-26T10:06:57.529Z,0.96
2019-01-26T10:07:57.502Z,0.96
2019-01-26T10:08:57.538Z,0.99
2019-01-26T10:09:57.469Z,0.92
2019-01-26T10:10:57.785Z,1.02
2019-01-26T10:11:57.432Z,1
2019-01-26T10:12:57.419Z,1.02
2019-01-26T10:13:57.444Z,1.1
2019-01-26T10:14:57.377Z,1.11
2019-01-26T10:15:57.358Z,1.04
2019-01-26T10:16:57.342Z,1.1
2019-01-26T10:17:57.336Z,0.99
2019-01-26T10:18:58.618Z,1.02
2019-01-26T10:19:56.789Z,0.97
2019-01-26T10:20:57.273Z,0.96
2019-01-26T10:21:57.269Z,1.11
2019-01-26T10:22:57.229Z,1.08
2019-01-26T10:23:57.535Z,1.02
2019-01-26T10:24:57.198Z,1.1
2019-01-26T10:25:57.184Z,1.12
2019-01-26T10:26:57.159Z,1.04
2019-01-26T10:27:57.149Z,1.11
2019-01-26T10:28:57.120Z,1.12
2019-01-26T10:29:57.100Z,1.17
2019-01-26T10:30:57.082Z,1.17
2019-01-26T10:31:56.817Z,1.1
2019-01-26T10:32:57.056Z,1.15
2019-01-26T10:33:57.030Z,1
2019-01-26T10:34:57.010Z,1.12
2019-01-26T10:35:56.994Z,1.18
2019-01-26T10:36:56.975Z,1.21
2019-01-26T10:37:56.959Z,1.2
2019-01-26T10:38:56.939Z,1.24
2019-01-26T10:39:56.918Z,1.33
2019-01-26T10:40:56.905Z,1.28
2019-01-26T10:41:56.637Z,1.24
2019-01-26T10:42:56.622Z,1.28
2019-01-26T10:43:56.847Z,1.32
2019-01-26T10:44:56.832Z,1.38
2019-01-26T10:45:56.816Z,1.38
2019-01-26T10:46:56.792Z,1.35
2019-01-26T10:47:56.775Z,1.2
2019-01-26T10:49:03.214Z,1.28
2019-01-26T10:49:56.737Z,1.22
2019-01-26T10:50:56.723Z,1.33
2019-01-26T10:51:56.708Z,1.35
2019-01-26T10:52:56.436Z,1.35
2019-01-26T10:53:56.425Z,1.3
2019-01-26T10:54:56.403Z,1.3
2019-01-26T10:55:56.634Z,1.32
2019-01-26T10:56:56.616Z,1.3
2019-01-26T10:57:56.597Z,1.28
2019-01-26T10:58:56.578Z,1.28
2019-01-26T10:59:56.556Z,1.3
2019-01-26T11:00:56.554Z,1.32
2019-01-26T11:01:56.524Z,1.24
2019-01-26T11:02:56.510Z,1.28
2019-01-26T11:03:56.496Z,1.32
2019-01-26T11:04:56.519Z,1.28
2019-01-26T11:05:56.446Z,1.21
2019-01-26T11:06:56.746Z,1.28
2019-01-26T11:07:56.414Z,1.28
2019-01-26T11:08:56.445Z,1.32
2019-01-26T11:09:56.430Z,1.26
2019-01-26T11:10:56.363Z,1.46
2019-01-26T11:11:56.342Z,1.39
2019-01-26T11:12:56.076Z,1.39
2019-01-26T11:13:56.307Z,1.47
2019-01-26T11:14:56.291Z,1.42
2019-01-26T11:15:56.272Z,1.48
2019-01-26T11:16:56.257Z,1.46
2019-01-26T11:17:56.239Z,1.5
2019-01-26T11:18:56.218Z,1.51
2019-01-26T11:19:56.196Z,1.47
2019-01-26T11:20:56.181Z,1.4
2019-01-26T11:21:56.162Z,1.5
2019-01-26T11:22:56.141Z,1.36
2019-01-26T11:23:56.127Z,1.53
2019-01-26T11:24:56.161Z,1.48
2019-01-26T11:25:55.860Z,1.54
2019-01-26T11:26:56.083Z,1.42
2019-01-26T11:27:56.055Z,1.53
2019-01-26T11:28:56.036Z,1.5
2019-01-26T11:29:56.017Z,1.47
2019-01-26T11:30:56.004Z,1.42
2019-01-26T11:31:55.986Z,1.46
2019-01-26T11:32:55.960Z,1.57
2019-01-26T11:33:55.947Z,1.5
2019-01-26T11:34:55.685Z,1.42
2019-01-26T11:35:55.916Z,1.53
2019-01-26T11:36:55.911Z,1.53
2019-01-26T11:37:55.873Z,1.39
2019-01-26T11:38:55.611Z,1.44
2019-01-26T11:39:55.847Z,1.4
2019-01-26T11:40:55.569Z,1.48
2019-01-26T11:41:55.802Z,1.54
2019-01-26T11:42:55.788Z,1.5
2019-01-26T11:43:55.521Z,1.57
2019-01-26T11:44:55.502Z,1.56
2019-01-26T11:45:55.781Z,1.51
2019-01-26T11:46:55.708Z,1.57
2019-01-26T11:47:55.696Z,1.65
2019-01-26T11:48:55.678Z,1.64
2019-01-26T11:49:55.660Z,1.68
2019-01-26T11:50:55.639Z,1.74
2019-01-26T11:51:55.624Z,1.76
2019-01-26T11:52:55.614Z,1.72
2019-01-26T11:53:55.594Z,1.82
2019-01-26T11:54:55.326Z,1.71
2019-01-26T11:55:55.550Z,1.71
2019-01-26T11:56:55.567Z,1.71
2019-01-26T11:57:55.521Z,1.83
2019-01-26T11:58:55.507Z,1.72
2019-01-26T11:59:55.483Z,1.78
2019-01-26T12:01:01.948Z,1.75
2019-01-26T12:01:55.443Z,1.75
2019-01-26T12:02:55.182Z,1.69
2019-01-26T12:03:55.413Z,1.86
2019-01-26T12:04:55.394Z,1.76
2019-01-26T12:05:55.371Z,1.84
2019-01-26T12:06:55.358Z,1.84
2019-01-26T12:07:55.091Z,1.89
2019-01-26T12:08:55.331Z,1.83
2019-01-26T12:09:55.304Z,1.87
2019-01-26T12:10:55.287Z,2.01
2019-01-26T12:11:55.279Z,1.82
2019-01-26T12:12:55.260Z,1.84
2019-01-26T12:13:55.229Z,1.89
2019-01-26T12:14:55.218Z,1.97
2019-01-26T12:15:55.196Z,1.94
2019-01-26T12:16:55.180Z,1.93
2019-01-26T12:17:55.160Z,1.98
2019-01-26T12:18:55.141Z,2.08
2019-01-26T12:19:55.129Z,2.09
2019-01-26T12:20:55.107Z,2.09
2019-01-26T12:21:55.146Z,1.98
2019-01-26T12:22:55.076Z,2.04
2019-01-26T12:23:55.056Z,2.01
2019-01-26T12:24:55.041Z,1.97
2019-01-26T12:25:55.025Z,2.04
2019-01-26T12:26:54.998Z,2.04
2019-01-26T12:27:54.739Z,2.08
2019-01-26T12:28:54.475Z,2.06
2019-01-26T12:29:54.950Z,1.97
2019-01-26T12:30:54.938Z,2.09
2019-01-26T12:31:54.918Z,1.97
2019-01-26T12:32:54.894Z,1.93
2019-01-26T12:33:54.877Z,2.01
2019-01-26T12:34:54.872Z,1.92
2019-01-26T12:35:54.849Z,1.94
2019-01-26T12:36:54.826Z,1.97
2019-01-26T12:37:54.810Z,1.94
2019-01-26T12:38:54.795Z,2.01
2019-01-26T12:39:54.529Z,1.82
2019-01-26T12:40:54.755Z,2.02
2019-01-26T12:41:54.493Z,1.87
2019-01-26T12:42:54.724Z,1.98
2019-01-26T12:43:54.452Z,1.9
2019-01-26T12:44:54.438Z,1.98
2019-01-26T12:45:54.415Z,1.98
2019-01-26T12:46:54.651Z,1.98
2019-01-26T12:47:54.631Z,2.02
2019-01-26T12:48:54.611Z,2.01
2019-01-26T12:49:54.595Z,2.06
2019-01-26T12:50:54.578Z,2.02
2019-01-26T12:51:54.312Z,2.02
2019-01-26T12:52:54.543Z,1.98
2019-01-26T12:53:54.281Z,1.93
2019-01-26T12:54:54.509Z,1.97
2019-01-26T12:55:54.490Z,1.94
2019-01-26T12:56:54.480Z,1.93
2019-01-26T12:57:54.463Z,1.92
2019-01-26T12:58:54.604Z,1.92
2019-01-26T12:59:54.175Z,1.9
2019-01-26T13:00:54.406Z,1.9
2019-01-26T13:01:54.382Z,1.92
2019-01-26T13:02:54.368Z,1.79
2019-01-26T13:03:54.107Z,1.84
2019-01-26T13:04:54.333Z,1.92
2019-01-26T13:05:54.315Z,1.83